createdAt,value
2023-01-09T00:02:44.727Z,6.98
2023-01-09T00:07:49.267Z,6.84
2023-01-09T00:12:52.601Z,6.91
2023-01-09T00:17:55.923Z,6.95
2023-01-09T00:23:00.544Z,6.95
2023-01-09T00:28:03.635Z,7.00
2023-01-09T00:33:06.730Z,6.96
2023-01-09T00:38:11.281Z,6.97
2023-01-09T00:43:14.698Z,6.95
2023-01-09T00:48:26.637Z,7.06
2023-01-09T00:53:33.970Z,7.20
2023-01-09T00:58:37.487Z,7.29
2023-01-09T01:03:40.920Z,6.94
2023-01-09T01:08:46.194Z,7.16
2023-01-09T01:13:49.334Z,7.08
2023-01-09T01:18:52.493Z,7.11
2023-01-09T01:23:56.884Z,7.15
2023-01-09T01:29:00.562Z,7.23
2023-01-09T01:34:03.794Z,7.10
2023-01-09T01:39:08.559Z,7.11
2023-01-09T01:44:44.680Z,6.96
2023-01-09T01:49:48.770Z,7.03
2023-01-09T01:54:53.816Z,6.84
2023-01-09T02:00:00.139Z,6.95
2023-01-09T02:05:04.049Z,6.78
2023-01-09T02:10:09.986Z,6.96
2023-01-09T02:15:16.168Z,6.91
2023-01-09T02:20:37.435Z,6.88
2023-01-09T02:26:05.458Z,6.76
2023-01-09T02:31:15.773Z,6.73
2023-01-09T02:36:27.861Z,6.87
2023-01-09T02:41:38.435Z,6.74
2023-01-09T02:46:43.066Z,6.57
2023-01-09T02:51:52.944Z,6.67
2023-01-09T02:57:22.522Z,6.81
2023-01-09T03:02:40.835Z,6.85
2023-01-09T03:07:49.353Z,6.68
2023-01-09T03:12:58.116Z,6.75
2023-01-09T03:18:06.802Z,6.61
2023-01-09T03:23:10.046Z,7.01
2023-01-09T03:28:26.885Z,6.93
2023-01-09T03:33:31.561Z,6.96
2023-01-09T03:38:34.790Z,7.16
2023-01-09T03:43:38.095Z,7.03
2023-01-09T03:48:43.011Z,7.06
2023-01-09T03:53:46.209Z,7.17
2023-01-09T03:58:50.225Z,7.00
2023-01-09T04:03:54.673Z,7.03
2023-01-09T04:08:57.894Z,7.23
2023-01-09T04:14:01.037Z,7.16
2023-01-09T04:19:05.645Z,7.07
2023-01-09T04:24:09.546Z,7.10
2023-01-09T04:29:12.876Z,6.91
2023-01-09T04:34:17.542Z,6.71
2023-01-09T04:39:20.636Z,6.72
2023-01-09T04:44:26.552Z,6.97
2023-01-09T04:49:31.574Z,7.03
2023-01-09T04:54:36.038Z,7.06
2023-01-09T04:59:39.950Z,7.10
2023-01-09T05:04:45.644Z,7.37
2023-01-09T05:09:49.059Z,7.38
2023-01-09T05:14:52.307Z,7.15
2023-01-09T05:19:57.534Z,7.17
2023-01-09T05:25:00.866Z,7.25
2023-01-09T05:30:04.236Z,7.37
2023-01-09T05:35:10.308Z,7.32
2023-01-09T05:40:14.222Z,7.15
2023-01-09T05:45:18.106Z,7.34
2023-01-09T05:50:22.838Z,7.60
2023-01-09T05:55:26.341Z,7.55
2023-01-09T06:00:29.617Z,7.57
2023-01-09T06:05:34.986Z,7.48
2023-01-09T06:10:38.389Z,7.43
2023-01-09T06:15:41.767Z,7.32
2023-01-09T06:20:47.015Z,7.44
2023-01-09T06:25:50.184Z,7.41
2023-01-09T06:30:53.824Z,7.37
2023-01-09T06:35:58.434Z,7.46
2023-01-09T06:41:01.659Z,7.55
2023-01-09T06:46:05.727Z,7.39
2023-01-09T06:51:10.308Z,7.28
2023-01-09T06:56:13.532Z,7.13
2023-01-09T07:01:16.788Z,7.05
2023-01-09T07:06:21.455Z,7.07
2023-01-09T07:11:24.572Z,6.65
2023-01-09T07:16:27.658Z,6.71
2023-01-09T07:21:32.978Z,6.68
2023-01-09T07:26:36.269Z,6.66
2023-01-09T07:31:39.624Z,6.64
2023-01-09T07:36:46.578Z,6.46
2023-01-09T07:41:49.834Z,6.44
2023-01-09T07:46:53.065Z,6.41
2023-01-09T07:51:57.635Z,6.34
2023-01-09T07:57:00.753Z,6.13
2023-01-09T08:02:05.735Z,6.10
2023-01-09T08:07:10.299Z,6.27
2023-01-09T08:12:13.533Z,6.48
2023-01-09T08:17:16.770Z,6.41
2023-01-09T08:22:21.410Z,6.33
2023-01-09T08:27:24.542Z,6.35
2023-01-09T08:32:27.817Z,6.45
2023-01-09T08:37:32.391Z,6.68
2023-01-09T08:42:52.856Z,6.32
2023-01-09T08:47:56.245Z,6.34
2023-01-09T08:53:00.878Z,6.25
2023-01-09T08:58:04.049Z,6.18
2023-01-09T09:03:07.268Z,6.39
2023-01-09T09:08:11.856Z,6.04
2023-01-09T09:13:15.001Z,6.44
2023-01-09T09:18:18.228Z,6.67
2023-01-09T09:23:23.682Z,6.70
2023-01-09T09:28:26.891Z,6.68
2023-01-09T09:33:30.386Z,6.94
2023-01-09T09:38:35.030Z,6.98
2023-01-09T09:44:16.127Z,7.00
2023-01-09T09:49:24.286Z,7.33
2023-01-09T09:54:34.273Z,7.20
2023-01-09T09:59:41.534Z,7.57
2023-01-09T10:04:51.553Z,7.47
2023-01-09T10:09:59.898Z,7.23
2023-01-09T10:15:16.538Z,7.32
2023-01-09T10:20:59.109Z,7.50
2023-01-09T10:26:11.931Z,7.20
2023-01-09T10:31:23.821Z,7.22
2023-01-09T10:36:54.179Z,7.34
2023-01-09T10:42:05.421Z,7.36
2023-01-09T10:47:23.453Z,7.44
2023-01-09T10:52:31.186Z,7.41
2023-01-09T10:57:43.464Z,7.25
2023-01-09T11:02:47.021Z,7.36
2023-01-09T11:07:54.623Z,7.26
2023-01-09T11:13:15.566Z,7.36
2023-01-09T11:18:21.405Z,7.44
2023-01-09T11:23:30.091Z,7.21
2023-01-09T11:28:34.796Z,7.10
2023-01-09T11:33:43.919Z,7.04
2023-01-09T11:38:50.787Z,7.16
2023-01-09T11:43:58.446Z,7.17
2023-01-09T11:49:02.836Z,7.19
2023-01-09T11:54:28.483Z,7.07
2023-01-09T11:59:33.284Z,7.10
2023-01-09T12:04:42.404Z,7.17
2023-01-09T12:09:55.797Z,7.10
2023-01-09T12:15:13.493Z,7.30
2023-01-09T12:20:39.701Z,7.15
2023-01-09T12:25:53.328Z,7.45
2023-01-09T12:31:10.438Z,6.91
2023-01-09T12:36:23.711Z,7.00
2023-01-09T12:41:53.534Z,7.51
2023-01-09T12:47:10.468Z,7.38
2023-01-09T12:52:20.471Z,7.69
2023-01-09T12:57:29.423Z,7.60
2023-01-09T13:02:38.654Z,7.84
2023-01-09T13:07:45.878Z,7.77
2023-01-09T13:12:50.471Z,7.76
2023-01-09T13:18:00.123Z,7.75
2023-01-09T13:23:05.091Z,7.01
2023-01-09T13:28:15.388Z,7.57
2023-01-09T13:33:23.026Z,7.23
2023-01-09T13:38:28.770Z,7.41
2023-01-09T13:43:55.215Z,7.49
2023-01-09T13:48:59.954Z,7.19
2023-01-09T13:54:03.136Z,7.09
2023-01-09T13:59:27.984Z,7.02
2023-01-09T14:04:46.159Z,7.15
2023-01-09T14:09:53.720Z,6.98
2023-01-09T14:15:02.116Z,7.00
2023-01-09T14:20:23.956Z,6.85
2023-01-09T14:25:30.288Z,6.71
2023-01-09T14:30:39.844Z,6.73
2023-01-09T14:35:49.088Z,6.68
2023-01-09T14:40:57.231Z,6.63
2023-01-09T14:46:05.951Z,6.63
2023-01-09T14:51:17.766Z,6.57
2023-01-09T14:56:28.756Z,6.47
2023-01-09T15:01:33.259Z,6.06
2023-01-09T15:06:42.457Z,6.20
2023-01-09T15:11:46.048Z,6.11
2023-01-09T15:16:49.522Z,6.16
2023-01-09T15:22:02.940Z,5.84
2023-01-09T15:27:12.731Z,5.78
2023-01-09T15:32:20.325Z,5.63
2023-01-09T15:37:31.559Z,5.44
2023-01-09T15:42:57.548Z,5.39
2023-01-09T15:48:16.853Z,5.49
2023-01-09T15:53:23.422Z,5.05
2023-01-09T15:58:29.071Z,5.21
2023-01-09T16:03:32.707Z,5.32
2023-01-09T16:08:40.927Z,5.25
2023-01-09T16:13:46.798Z,5.08
2023-01-09T16:18:52.384Z,5.06
2023-01-09T16:23:58.833Z,5.25
2023-01-09T16:29:36.466Z,5.04
2023-01-09T16:34:44.270Z,4.99
2023-01-09T16:40:27.286Z,4.73
2023-01-09T16:45:34.458Z,4.71
2023-01-09T16:50:37.895Z,4.51
2023-01-09T16:55:42.740Z,4.56
2023-01-09T17:00:45.971Z,4.26
2023-01-09T17:05:51.462Z,4.39
2023-01-09T17:10:57.346Z,4.58
2023-01-09T17:16:01.007Z,4.80
2023-01-09T17:21:04.568Z,4.99
2023-01-09T17:26:34.845Z,5.07
2023-01-09T17:31:38.769Z,5.03
2023-01-09T17:36:42.942Z,4.62
2023-01-09T17:41:47.721Z,5.06
2023-01-09T17:46:51.115Z,4.97
2023-01-09T17:51:54.644Z,5.02
2023-01-09T17:57:06.074Z,5.23
2023-01-09T18:02:17.393Z,5.22
2023-01-09T18:07:20.713Z,5.44
2023-01-09T18:12:25.334Z,5.29
2023-01-09T18:17:28.668Z,5.32
2023-01-09T18:22:34.013Z,5.38
2023-01-09T18:27:39.004Z,5.56
2023-01-09T18:32:43.117Z,5.25
2023-01-09T18:37:46.281Z,5.30
2023-01-09T18:42:52.130Z,5.30
2023-01-09T18:47:55.272Z,5.32
2023-01-09T18:52:58.259Z,5.13
2023-01-09T18:58:02.894Z,5.08
2023-01-09T19:03:06.319Z,4.63
2023-01-09T19:08:09.673Z,4.77
2023-01-09T19:13:14.424Z,4.60
2023-01-09T19:18:17.548Z,4.21
2023-01-09T19:23:21.189Z,4.43
2023-01-09T19:28:25.770Z,4.52
2023-01-09T19:33:29.049Z,4.47
2023-01-09T19:38:32.368Z,4.24
2023-01-09T19:43:38.414Z,4.32
2023-01-09T19:48:43.287Z,4.43
2023-01-09T19:53:51.192Z,4.27
2023-01-09T19:58:56.968Z,3.80
2023-01-09T20:04:03.305Z,3.91
2023-01-09T20:09:07.658Z,3.82
2023-01-09T20:14:14.033Z,3.65
2023-01-09T20:19:17.635Z,3.41
2023-01-09T20:24:20.732Z,3.59
2023-01-09T20:29:25.695Z,3.56
2023-01-09T20:34:28.967Z,3.27
2023-01-09T20:39:32.081Z,3.35
2023-01-09T20:44:37.085Z,3.33
2023-01-09T20:49:40.465Z,3.48
2023-01-09T20:54:45.323Z,3.57
2023-01-09T20:59:50.938Z,3.55
2023-01-09T21:04:54.323Z,3.78
2023-01-09T21:09:57.760Z,3.62
2023-01-09T21:15:04.679Z,3.61
2023-01-09T21:20:10.554Z,3.79
2023-01-09T21:25:15.868Z,3.82
2023-01-09T21:30:20.455Z,3.58
2023-01-09T21:35:23.805Z,3.72
2023-01-09T21:40:27.006Z,3.84
2023-01-09T21:45:49.155Z,3.94
2023-01-09T21:50:52.370Z,3.84
2023-01-09T21:55:55.582Z,3.89
2023-01-09T22:01:03.375Z,3.78
2023-01-09T22:06:07.140Z,3.80
2023-01-09T22:11:10.266Z,3.81
2023-01-09T22:16:15.214Z,4.02
2023-01-09T22:21:18.779Z,4.11
2023-01-09T22:26:22.285Z,4.20
2023-01-09T22:31:28.588Z,4.05
2023-01-09T22:36:32.721Z,4.14
2023-01-09T22:41:35.912Z,4.21
2023-01-09T22:46:40.421Z,4.34
2023-01-09T22:51:43.846Z,4.33
2023-01-09T22:56:50.804Z,4.54
2023-01-09T23:01:56.873Z,4.57
2023-01-09T23:07:00.124Z,4.45
2023-01-09T23:12:03.324Z,4.13
2023-01-09T23:17:11.373Z,4.22
2023-01-09T23:22:14.403Z,4.37
2023-01-09T23:27:17.542Z,4.55
2023-01-09T23:32:22.242Z,4.43
2023-01-09T23:37:25.456Z,4.21
2023-01-09T23:42:46.157Z,4.34
2023-01-09T23:47:51.191Z,4.52
2023-01-09T23:52:55.022Z,4.57
2023-01-09T23:57:59.002Z,4.66
